EJU7937 EHAM-EKCH
Flight info
| Callsign | EJU7937 |
|---|---|
| Flight time | 0h 59m |
| Altitude | 37000 |
| Route | ANDIK N873 JUIST DCT DOSUR P729 TUDLO |
| Aircraft | A319/M-SDE2E3FGIJ1RWXYZ/LB1 |
Departure
| Time | 2026-05-04 16:36 |
|---|---|
| Airport | Amsterdam Airport Schiphol (EHAM) |
Arrival
| Time | 2026-05-04 17:35 |
|---|---|
| Airport | Copenhagen Kastrup Airport (EKCH) |
| Time | Latitude | Longitude | Altitude | Speed | Heading |
|---|---|---|---|---|---|
| 2026-05-04 16:14 | 52.30982 | 4.75358 | -1 ft | 0 kts | 148° |
| 2026-05-04 16:24 | 52.30992 | 4.75348 | -1 ft | 4 kts | 151° |
| 2026-05-04 16:25 | 52.31020 | 4.75303 | -1 ft | 4 kts | 68° |
| 2026-05-04 16:26 | 52.31017 | 4.75290 | -1 ft | 0 kts | 70° |
| 2026-05-04 16:27 | 52.31028 | 4.75310 | -1 ft | 4 kts | 48° |
| 2026-05-04 16:28 | 52.31176 | 4.75490 | -1 ft | 14 kts | 1° |
| 2026-05-04 16:28 | 52.31508 | 4.75394 | -1 ft | 15 kts | 275° |
| 2026-05-04 16:29 | 52.31482 | 4.74550 | -1 ft | 25 kts | 266° |
| 2026-05-04 16:30 | 52.31772 | 4.74176 | -1 ft | 27 kts | 2° |
| 2026-05-04 16:31 | 52.32035 | 4.74060 | -2 ft | 17 kts | 276° |
| 2026-05-04 16:31 | 52.32054 | 4.73546 | -1 ft | 14 kts | 273° |
| 2026-05-04 16:32 | 52.32285 | 4.73078 | -1 ft | 28 kts | 320° |
| 2026-05-04 16:33 | 52.32592 | 4.72648 | -1 ft | 29 kts | 319° |
| 2026-05-04 16:33 | 52.32860 | 4.72183 | -1 ft | 25 kts | 310° |
| 2026-05-04 16:34 | 52.33099 | 4.71744 | -1 ft | 28 kts | 311° |
| 2026-05-04 16:34 | 52.33129 | 4.71477 | -1 ft | 25 kts | 262° |
| 2026-05-04 16:35 | 52.33482 | 4.70948 | -2 ft | 23 kts | 3° |
| 2026-05-04 16:35 | 52.35451 | 4.71128 | 339 ft | 155 kts | 3° |
| 2026-05-04 16:36 | 52.36526 | 4.71231 | 1114 ft | 154 kts | 2° |
| 2026-05-04 16:36 | 52.38949 | 4.71473 | 1995 ft | 200 kts | 3° |
| 2026-05-04 16:37 | 52.42077 | 4.71749 | 3065 ft | 248 kts | 2° |
| 2026-05-04 16:37 | 52.43842 | 4.71904 | 3886 ft | 259 kts | 2° |
| 2026-05-04 16:37 | 52.46898 | 4.72192 | 5469 ft | 269 kts | 1° |
| 2026-05-04 16:38 | 52.50715 | 4.72560 | 7333 ft | 280 kts | 4° |
| 2026-05-04 16:39 | 52.55442 | 4.78099 | 10018 ft | 302 kts | 67° |
| 2026-05-04 16:39 | 52.56828 | 4.85083 | 11018 ft | 337 kts | 73° |
| 2026-05-04 16:40 | 52.58238 | 4.92554 | 12600 ft | 348 kts | 69° |
| 2026-05-04 16:40 | 52.60755 | 4.99393 | 14166 ft | 354 kts | 50° |
| 2026-05-04 16:41 | 52.63869 | 5.05867 | 15584 ft | 362 kts | 51° |
| 2026-05-04 16:41 | 52.68606 | 5.15818 | 17664 ft | 375 kts | 51° |
| 2026-05-04 16:42 | 52.73526 | 5.26158 | 19556 ft | 387 kts | 51° |
| 2026-05-04 16:43 | 52.76861 | 5.33188 | 20703 ft | 396 kts | 50° |
| 2026-05-04 16:43 | 52.80291 | 5.40435 | 21823 ft | 405 kts | 50° |
| 2026-05-04 16:43 | 52.82036 | 5.44136 | 22377 ft | 410 kts | 50° |
| 2026-05-04 16:44 | 52.89201 | 5.59416 | 24365 ft | 430 kts | 50° |
| 2026-05-04 16:45 | 52.92904 | 5.67335 | 25228 ft | 439 kts | 51° |
| 2026-05-04 16:46 | 52.98568 | 5.79511 | 26524 ft | 450 kts | 52° |
| 2026-05-04 16:46 | 53.02420 | 5.87826 | 27364 ft | 457 kts | 52° |
| 2026-05-04 16:47 | 53.06312 | 5.96264 | 28173 ft | 464 kts | 53° |
| 2026-05-04 16:47 | 53.10263 | 6.04873 | 28990 ft | 472 kts | 53° |
| 2026-05-04 16:48 | 53.16337 | 6.18123 | 30048 ft | 485 kts | 54° |
| 2026-05-04 16:48 | 53.18390 | 6.22617 | 30385 ft | 488 kts | 53° |
| 2026-05-04 16:49 | 53.22518 | 6.31688 | 31118 ft | 492 kts | 53° |
| 2026-05-04 16:49 | 53.26665 | 6.40828 | 31883 ft | 494 kts | 53° |
| 2026-05-04 16:50 | 53.30788 | 6.49942 | 32940 ft | 489 kts | 52° |
| 2026-05-04 16:50 | 53.34939 | 6.58877 | 33960 ft | 484 kts | 46° |
| 2026-05-04 16:51 | 53.39802 | 6.66553 | 34831 ft | 478 kts | 40° |
| 2026-05-04 16:51 | 53.42253 | 6.70317 | 35246 ft | 476 kts | 40° |
| 2026-05-04 16:51 | 53.47123 | 6.77824 | 35944 ft | 475 kts | 40° |
| 2026-05-04 16:52 | 53.51967 | 6.85321 | 36654 ft | 472 kts | 40° |
| 2026-05-04 16:52 | 53.54380 | 6.89065 | 36959 ft | 471 kts | 40° |
| 2026-05-04 16:53 | 53.59117 | 6.96563 | 37001 ft | 464 kts | 42° |
| 2026-05-04 16:54 | 53.68191 | 7.12007 | 37002 ft | 463 kts | 44° |
| 2026-05-04 16:55 | 53.81825 | 7.35148 | 37015 ft | 463 kts | 43° |
| 2026-05-04 16:56 | 53.93156 | 7.54530 | 37019 ft | 463 kts | 43° |
| 2026-05-04 16:57 | 53.99937 | 7.66200 | 37019 ft | 463 kts | 43° |
| 2026-05-04 16:58 | 54.08950 | 7.81826 | 37027 ft | 462 kts | 43° |
| 2026-05-04 17:00 | 54.22413 | 8.05333 | 37018 ft | 462 kts | 43° |
| 2026-05-04 17:00 | 54.29112 | 8.17136 | 36199 ft | 460 kts | 43° |
| 2026-05-04 17:01 | 54.33575 | 8.25010 | 36019 ft | 462 kts | 43° |
| 2026-05-04 17:02 | 54.42522 | 8.40892 | 36003 ft | 463 kts | 44° |
| 2026-05-04 17:03 | 54.49201 | 8.52855 | 36007 ft | 460 kts | 44° |
| 2026-05-04 17:03 | 54.55850 | 8.64756 | 36007 ft | 461 kts | 44° |
| 2026-05-04 17:04 | 54.64704 | 8.80826 | 36008 ft | 462 kts | 44° |
| 2026-05-04 17:05 | 54.73594 | 8.96968 | 36025 ft | 461 kts | 44° |
| 2026-05-04 17:06 | 54.80225 | 9.09000 | 36016 ft | 460 kts | 44° |
| 2026-05-04 17:07 | 54.86097 | 9.19686 | 35717 ft | 458 kts | 44° |
| 2026-05-04 17:07 | 54.89034 | 9.25050 | 34861 ft | 459 kts | 44° |
| 2026-05-04 17:07 | 54.91234 | 9.29079 | 34234 ft | 460 kts | 44° |
| 2026-05-04 17:08 | 54.93429 | 9.33122 | 33641 ft | 458 kts | 44° |
| 2026-05-04 17:08 | 54.97755 | 9.41089 | 32617 ft | 449 kts | 44° |
| 2026-05-04 17:08 | 54.99893 | 9.45031 | 32106 ft | 445 kts | 44° |
| 2026-05-04 17:09 | 55.02011 | 9.48939 | 31608 ft | 442 kts | 44° |
| 2026-05-04 17:09 | 55.04117 | 9.52829 | 31111 ft | 438 kts | 44° |
| 2026-05-04 17:09 | 55.06194 | 9.56668 | 30626 ft | 435 kts | 44° |
| 2026-05-04 17:10 | 55.10414 | 9.64466 | 29051 ft | 456 kts | 44° |
| 2026-05-04 17:10 | 55.17074 | 9.76678 | 28990 ft | 461 kts | 44° |
| 2026-05-04 17:11 | 55.21515 | 9.84716 | 28987 ft | 459 kts | 44° |
| 2026-05-04 17:12 | 55.28153 | 9.96820 | 28976 ft | 459 kts | 47° |
| 2026-05-04 17:12 | 55.30968 | 10.06859 | 28977 ft | 468 kts | 80° |
| 2026-05-04 17:13 | 55.30515 | 10.21957 | 28960 ft | 461 kts | 98° |
| 2026-05-04 17:14 | 55.29449 | 10.38086 | 27821 ft | 434 kts | 98° |
| 2026-05-04 17:14 | 55.29100 | 10.43349 | 27155 ft | 434 kts | 98° |
| 2026-05-04 17:14 | 55.28376 | 10.53747 | 26205 ft | 426 kts | 98° |
| 2026-05-04 17:15 | 55.28005 | 10.58893 | 25714 ft | 423 kts | 98° |
| 2026-05-04 17:15 | 55.28453 | 10.69027 | 24786 ft | 417 kts | 73° |
| 2026-05-04 17:16 | 55.30081 | 10.78812 | 24197 ft | 413 kts | 72° |
| 2026-05-04 17:16 | 55.32498 | 10.93233 | 23047 ft | 412 kts | 72° |
| 2026-05-04 17:17 | 55.33310 | 10.98098 | 22585 ft | 407 kts | 72° |
| 2026-05-04 17:17 | 55.35605 | 11.11958 | 21583 ft | 387 kts | 72° |
| 2026-05-04 17:18 | 55.36353 | 11.16500 | 21119 ft | 385 kts | 73° |
| 2026-05-04 17:18 | 55.37830 | 11.25491 | 20218 ft | 381 kts | 73° |
| 2026-05-04 17:19 | 55.39293 | 11.34394 | 19352 ft | 377 kts | 73° |
| 2026-05-04 17:19 | 55.40722 | 11.43162 | 18054 ft | 371 kts | 73° |
| 2026-05-04 17:20 | 55.42119 | 11.51861 | 16948 ft | 368 kts | 73° |
| 2026-05-04 17:20 | 55.43650 | 11.60410 | 16095 ft | 363 kts | 63° |
| 2026-05-04 17:20 | 55.44945 | 11.64185 | 15675 ft | 358 kts | 49° |
| 2026-05-04 17:21 | 55.48399 | 11.70081 | 15296 ft | 337 kts | 37° |
| 2026-05-04 17:21 | 55.51880 | 11.75531 | 14681 ft | 332 kts | 37° |
| 2026-05-04 17:22 | 55.53578 | 11.78289 | 14321 ft | 333 kts | 44° |
| 2026-05-04 17:22 | 55.54876 | 11.81698 | 13984 ft | 336 kts | 59° |
| 2026-05-04 17:23 | 55.58141 | 11.92565 | 12953 ft | 331 kts | 60° |
| 2026-05-04 17:23 | 55.59198 | 11.96118 | 12793 ft | 322 kts | 60° |
| 2026-05-04 17:23 | 55.61216 | 12.02946 | 12422 ft | 305 kts | 60° |
| 2026-05-04 17:24 | 55.62189 | 12.06256 | 12061 ft | 301 kts | 60° |
| 2026-05-04 17:24 | 55.65048 | 12.16005 | 10929 ft | 294 kts | 60° |
| 2026-05-04 17:25 | 55.65985 | 12.19212 | 10553 ft | 291 kts | 60° |
| 2026-05-04 17:25 | 55.67831 | 12.25531 | 9789 ft | 287 kts | 60° |
| 2026-05-04 17:26 | 55.69658 | 12.31804 | 8933 ft | 282 kts | 60° |
| 2026-05-04 17:26 | 55.72310 | 12.40986 | 7623 ft | 276 kts | 60° |
| 2026-05-04 17:27 | 55.74010 | 12.46892 | 6990 ft | 262 kts | 60° |
| 2026-05-04 17:27 | 55.75643 | 12.52626 | 6192 ft | 258 kts | 60° |
| 2026-05-04 17:28 | 55.77241 | 12.58265 | 5362 ft | 253 kts | 60° |
| 2026-05-04 17:29 | 55.79579 | 12.66541 | 4201 ft | 247 kts | 60° |
| 2026-05-04 17:29 | 55.80006 | 12.75378 | 4005 ft | 249 kts | 100° |
| 2026-05-04 17:30 | 55.77193 | 12.81982 | 3946 ft | 215 kts | 154° |
| 2026-05-04 17:31 | 55.74622 | 12.84189 | 3403 ft | 198 kts | 178° |
| 2026-05-04 17:31 | 55.71417 | 12.80553 | 2414 ft | 189 kts | 225° |
| 2026-05-04 17:32 | 55.69499 | 12.77580 | 1888 ft | 176 kts | 225° |
| 2026-05-04 17:33 | 55.66932 | 12.73584 | 1217 ft | 157 kts | 226° |
| 2026-05-04 17:33 | 55.66130 | 12.72338 | 1012 ft | 148 kts | 225° |
| 2026-05-04 17:34 | 55.63979 | 12.69004 | 451 ft | 133 kts | 225° |
| 2026-05-04 17:34 | 55.63290 | 12.67931 | 266 ft | 131 kts | 227° |
| 2026-05-04 17:35 | 55.61533 | 12.65193 | 23 ft | 57 kts | 221° |
| 2026-05-04 17:35 | 55.61212 | 12.64385 | 24 ft | 20 kts | 252° |
| 2026-05-04 17:35 | 55.61201 | 12.64156 | 24 ft | 20 kts | 303° |
| 2026-05-04 17:36 | 55.61324 | 12.64159 | 26 ft | 21 kts | 34° |
| 2026-05-04 17:36 | 55.61462 | 12.64318 | 24 ft | 25 kts | 32° |
| 2026-05-04 17:36 | 55.61613 | 12.64492 | 24 ft | 24 kts | 33° |
| 2026-05-04 17:36 | 55.61749 | 12.64648 | 25 ft | 25 kts | 33° |
| 2026-05-04 17:37 | 55.61875 | 12.64794 | 25 ft | 19 kts | 33° |
| 2026-05-04 17:37 | 55.61909 | 12.64833 | 25 ft | 0 kts | 33° |
| 2026-05-04 17:37 | 55.61930 | 12.64857 | 26 ft | 8 kts | 33° |
| 2026-05-04 17:38 | 55.61961 | 12.64893 | 25 ft | 1 kts | 35° |
| 2026-05-04 17:38 | 55.62000 | 12.64940 | 24 ft | 13 kts | 33° |
| 2026-05-04 17:38 | 55.62081 | 12.65032 | 24 ft | 14 kts | 33° |
| 2026-05-04 17:38 | 55.62168 | 12.65131 | 24 ft | 15 kts | 34° |
| 2026-05-04 17:39 | 55.62353 | 12.65200 | 24 ft | 8 kts | 359° |
| 2026-05-04 17:39 | 55.62401 | 12.65201 | 25 ft | 6 kts | 1° |
| 2026-05-04 17:39 | 55.62437 | 12.65233 | 25 ft | 9 kts | 62° |
| 2026-05-04 17:40 | 55.62440 | 12.65393 | 24 ft | 17 kts | 87° |
| 2026-05-04 17:40 | 55.62441 | 12.65600 | 24 ft | 17 kts | 92° |
| 2026-05-04 17:40 | 55.62446 | 12.65778 | 25 ft | 14 kts | 86° |
| 2026-05-04 17:40 | 55.62454 | 12.65945 | 24 ft | 12 kts | 56° |
| 2026-05-04 17:41 | 55.62507 | 12.65929 | 24 ft | 5 kts | 346° |
| 2026-05-04 17:41 | 55.62518 | 12.65924 | 26 ft | 0 kts | 347° |